Huvudsida
METAR-TAF:

METAR-TAF

Flygplatser :

Saint-Denis, Réunion

latitud: 20-53S, longitud: 055-31E, höjd: 21 m

Aktuellt väderrapport

Denna rapport gjordes för 24 minuter sedan, klockan 04:30 UTC
Vind 2 kt varierande vindriktning
Temperatur 29°C
Fuktighet 70%
Tryck 1010 hPa
Sikt 10 km eller mer
Få moln på en höjd av 3000 ft

METAR: FMEE 230430Z VRB02KT 9999 FEW030 29/23 Q1010 NOSIG

Tid: 08:54 (04:54 UTC)

Väderprognos

Denna rapport gjordes för 5 timmar och 54 minuter sedan, klockan 23:00 UTC
Prognos gäller från 23 kl. 00 UTC till 24 kl. 06 UTC
Vind 4 kt från syd/sydost
Sikt 10 km eller mer
Få moln på en höjd av 3000 ft
Blir
från 23 kl. 04 UTC till 23 kl. 06 UTC
Vind 6 kt från nord/nordost
Blir
från 23 kl. 14 UTC till 23 kl. 16 UTC
Vind 6 kt från syd/sydost

TAF: FMEE 222300Z 2300/2406 16004KT 9999 FEW030 BECMG 2304/2306 03006KT BECMG 2314/2316 16006KT

Aktuella väderrapporter och prognoser från 4000 flygplatser (METAR- och TAF-rapporter).

De tillgängliga stationerna syns som gula och röda prickar på kartan.

För musen över prickarna för att se namnen på stationerna.

Klicka sedan för att få väderrapporter och prognoser.

För att ändra kartan: Klicka på de gröna knapparna med ett svart kors på för att zooma in; den gröna knappen med ett streck på för att zooma ut; eller på de gröna pilarna för angränsande kartor.


METAR-TAF: